F/V Oceanie — FVBW — position and weather

sailwx.info

Track history (hours):
 
Tides and Currents Weather Stations Pressure Air Temp Water Temp Dewpoint Dewpoint Depression Visibility Wind Speed Wind Dir Waves Ship Positions

F/V Oceanie

Last reported at 2016-Jun-24 16:32 UTC. Time now 2016-Jun-25 01:48 UTC.
Position N 47°44' W 003°22'.

Length 16 m.

Type: Fishing. MMSI: 228370000.

Date/timePositionNaut miles runAvg speedWind from/ knotsBaromVisibWave heightAir tempDewpointWater temp
2016-Jun-24 16:32N 47°44' W 003°22'3 3.0
2016-Jun-24 15:33N 47°41' W 003°22'9 8.8
2016-Jun-24 14:33N 47°32' W 003°22'10 9.2
2016-Jun-24 13:27N 47°22' W 003°19'9 9.7
2016-Jun-24 12:33N 47°13' W 003°17'9 8.5
2016-Jun-24 11:33N 47°05' W 003°16'27 8.9
2016-Jun-24 08:28N 46°38' W 003°09'3 3.1
2016-Jun-24 07:33N 46°35' W 003°08'11 3.6
2016-Jun-24 04:33N 46°46' W 003°11'3 3.1
2016-Jun-24 03:33N 46°44' W 003°07'4 3.7
2016-Jun-24 02:28N 46°41' W 003°03'3 3.6
2016-Jun-24 01:33N 46°38' W 003°03'4 3.6
2016-Jun-24 00:21N 46°34' W 003°07'3 2.9
2016-Jun-23 23:27N 46°32' W 003°07'3 3.9
2016-Jun-23 22:33N 46°31' W 003°12'4 4.1
2016-Jun-23 21:33N 46°36' W 003°12'4 3.3
2016-Jun-23 20:16N 46°40' W 003°11'2 0.3
2016-Jun-23 14:32N 46°39' W 003°09'3 3.6
2016-Jun-23 13:33N 46°42' W 003°11'4 4.0
2016-Jun-23 12:33N 46°46' W 003°11'16 2.0
2016-Jun-23 04:21N 46°53' W 003°33'3 3.7
2016-Jun-23 03:33N 46°54' W 003°29'3 3.2
2016-Jun-23 02:33N 46°57' W 003°28'9 8.5
2016-Jun-23 01:33N 47°05' W 003°27'8 8.3
2016-Jun-23 00:33N 47°13' W 003°25'9 8.5
2016-Jun-22 23:33N 47°22' W 003°24'9 8.6
2016-Jun-22 22:33N 47°30' W 003°23'9 9.2
2016-Jun-22 21:33N 47°40' W 003°22'4 4.1
2016-Jun-22 20:33N 47°44' W 003°22'0 0.0
2016-Jun-22 19:33N 47°44' W 003°22'9 8.6
2016-Jun-22 18:33N 47°35' W 003°23'9 9.0
2016-Jun-22 17:33N 47°26' W 003°24'9 8.9
2016-Jun-22 16:33N 47°17' W 003°25'9 9.0
2016-Jun-22 15:33N 47°08' W 003°27'16 7.9
2016-Jun-22 13:30N 46°52' W 003°30'4 0.8
2016-Jun-22 08:27N 46°51' W 003°25'5 3.9
2016-Jun-22 07:04N 46°56' W 003°28'3 4.0
2016-Jun-22 06:25N 46°58' W 003°29'2 1.3
2016-Jun-22 04:31N 46°56' W 003°28'5 4.0
2016-Jun-22 03:19N 46°52' W 003°24'3 4.0
2016-Jun-22 02:28N 46°49' W 003°21'5 2.3
2016-Jun-22 00:07N 46°47' W 003°14'6 3.9
2016-Jun-21 22:30N 46°50' W 003°22'5 4.0
2016-Jun-21 21:15N 46°54' W 003°26'13 1.1
2016-Jun-21 09:24N 47°06' W 003°33'3 3.5
2016-Jun-21 08:27N 47°10' W 003°33'3 3.5
2016-Jun-21 07:33N 47°13' W 003°33'3 2.9
2016-Jun-21 06:33N 47°16' W 003°33'9 4.7
2016-Jun-21 04:33N 47°25' W 003°31'8 8.5
2016-Jun-21 03:33N 47°32' W 003°25'8 8.4
2016-Jun-21 02:33N 47°41' W 003°22'3 3.2
2016-Jun-21 01:33N 47°44' W 003°22'0 0.0
2016-Jun-20 13:33N 47°44' W 003°22'0 0.0
2016-Jun-20 12:33N 47°44' W 003°22'  
2016-Jun-17 20:33N 47°44' W 003°22'4 4.1
2016-Jun-17 19:33N 47°40' W 003°22'9 8.7
2016-Jun-17 18:33N 47°31' W 003°23'8 8.4
2016-Jun-17 17:33N 47°23' W 003°22'8 8.1
2016-Jun-17 16:33N 47°14' W 003°22'10 0.7
2016-Jun-17 02:33N 47°04' W 003°23'9 8.9
2016-Jun-17 01:33N 47°13' W 003°23'9 9.1
2016-Jun-17 00:33N 47°22' W 003°23'9 8.8
2016-Jun-16 23:33N 47°31' W 003°23'9 8.9
2016-Jun-16 22:33N 47°40' W 003°22'4 4.2
2016-Jun-16 21:33N 47°44' W 003°22'0 0.0
2016-Jun-16 20:33N 47°44' W 003°22'0 0.2
2016-Jun-16 19:33N 47°44' W 003°22'3 3.4
2016-Jun-16 18:33N 47°40' W 003°22'9 9.0
2016-Jun-16 17:33N 47°31' W 003°22'9 8.8
2016-Jun-16 16:33N 47°23' W 003°23'9 8.9
2016-Jun-16 15:33N 47°14' W 003°23'19 1.7
2016-Jun-16 04:19N 46°55' W 003°23'4 4.2
2016-Jun-16 03:15N 46°59' W 003°25'1 0.9
2016-Jun-16 02:16N 46°59' W 003°26'2 3.1
2016-Jun-16 01:33N 47°00' W 003°24'4 4.3
2016-Jun-16 00:32N 47°03' W 003°28'3 2.8
2016-Jun-15 23:33N 47°06' W 003°29'4 4.3
2016-Jun-15 22:33N 47°07' W 003°23'3 3.3
2016-Jun-15 21:33N 47°04' W 003°24'2 0.1
2016-Jun-15 02:09N 47°05' W 003°25'6 9.0
2016-Jun-15 01:32N 47°11' W 003°25'9 9.3
2016-Jun-15 00:33N 47°20' W 003°24'9 9.0
2016-Jun-14 23:34N 47°29' W 003°23'9 8.8
2016-Jun-14 22:33N 47°38' W 003°23'6 6.1
2016-Jun-14 21:33N 47°44' W 003°22'5 4.8
2016-Jun-14 20:33N 47°39' W 003°22'9 9.2
2016-Jun-14 19:33N 47°30' W 003°23'9 9.4
2016-Jun-14 18:33N 47°20' W 003°23'10 9.4
2016-Jun-14 17:32N 47°11' W 003°23'  
Track history (hours):
 
Tides and Currents Weather Stations Pressure Air Temp Water Temp Dewpoint Dewpoint Depression Visibility Wind Speed Wind Dir Waves Ship Positions

F/V Oceanie

Last reported at 2016-Jun-24 16:32 UTC. Time now 2016-Jun-25 01:48 UTC.
Position N 47°44' W 003°22'.

Length 16 m.

Type: Fishing. MMSI: 228370000.

Date/timePositionNaut miles runAvg speedWind from/ knotsBaromVisibWave heightAir tempDewpointWater temp
2016-Jun-24 16:32N 47°44' W 003°22'3 3.0
2016-Jun-24 15:33N 47°41' W 003°22'9 8.8
2016-Jun-24 14:33N 47°32' W 003°22'10 9.2
2016-Jun-24 13:27N 47°22' W 003°19'9 9.7
2016-Jun-24 12:33N 47°13' W 003°17'9 8.5
2016-Jun-24 11:33N 47°05' W 003°16'27 8.9
2016-Jun-24 08:28N 46°38' W 003°09'3 3.1
2016-Jun-24 07:33N 46°35' W 003°08'11 3.6
2016-Jun-24 04:33N 46°46' W 003°11'3 3.1
2016-Jun-24 03:33N 46°44' W 003°07'4 3.7
2016-Jun-24 02:28N 46°41' W 003°03'3 3.6
2016-Jun-24 01:33N 46°38' W 003°03'4 3.6
2016-Jun-24 00:21N 46°34' W 003°07'3 2.9
2016-Jun-23 23:27N 46°32' W 003°07'3 3.9
2016-Jun-23 22:33N 46°31' W 003°12'4 4.1
2016-Jun-23 21:33N 46°36' W 003°12'4 3.3
2016-Jun-23 20:16N 46°40' W 003°11'2 0.3
2016-Jun-23 14:32N 46°39' W 003°09'3 3.6
2016-Jun-23 13:33N 46°42' W 003°11'4 4.0
2016-Jun-23 12:33N 46°46' W 003°11'16 2.0
2016-Jun-23 04:21N 46°53' W 003°33'3 3.7
2016-Jun-23 03:33N 46°54' W 003°29'3 3.2
2016-Jun-23 02:33N 46°57' W 003°28'9 8.5
2016-Jun-23 01:33N 47°05' W 003°27'8 8.3
2016-Jun-23 00:33N 47°13' W 003°25'9 8.5
2016-Jun-22 23:33N 47°22' W 003°24'9 8.6
2016-Jun-22 22:33N 47°30' W 003°23'9 9.2
2016-Jun-22 21:33N 47°40' W 003°22'4 4.1
2016-Jun-22 20:33N 47°44' W 003°22'0 0.0
2016-Jun-22 19:33N 47°44' W 003°22'9 8.6
2016-Jun-22 18:33N 47°35' W 003°23'9 9.0
2016-Jun-22 17:33N 47°26' W 003°24'9 8.9
2016-Jun-22 16:33N 47°17' W 003°25'9 9.0
2016-Jun-22 15:33N 47°08' W 003°27'16 7.9
2016-Jun-22 13:30N 46°52' W 003°30'4 0.8
2016-Jun-22 08:27N 46°51' W 003°25'5 3.9
2016-Jun-22 07:04N 46°56' W 003°28'3 4.0
2016-Jun-22 06:25N 46°58' W 003°29'2 1.3
2016-Jun-22 04:31N 46°56' W 003°28'5 4.0
2016-Jun-22 03:19N 46°52' W 003°24'3 4.0
2016-Jun-22 02:28N 46°49' W 003°21'5 2.3
2016-Jun-22 00:07N 46°47' W 003°14'6 3.9
2016-Jun-21 22:30N 46°50' W 003°22'5 4.0
2016-Jun-21 21:15N 46°54' W 003°26'13 1.1
2016-Jun-21 09:24N 47°06' W 003°33'3 3.5
2016-Jun-21 08:27N 47°10' W 003°33'3 3.5
2016-Jun-21 07:33N 47°13' W 003°33'3 2.9
2016-Jun-21 06:33N 47°16' W 003°33'9 4.7
2016-Jun-21 04:33N 47°25' W 003°31'8 8.5
2016-Jun-21 03:33N 47°32' W 003°25'8 8.4
2016-Jun-21 02:33N 47°41' W 003°22'3 3.2
2016-Jun-21 01:33N 47°44' W 003°22'0 0.0
2016-Jun-20 13:33N 47°44' W 003°22'0 0.0
2016-Jun-20 12:33N 47°44' W 003°22'  
2016-Jun-17 20:33N 47°44' W 003°22'4 4.1
2016-Jun-17 19:33N 47°40' W 003°22'9 8.7
2016-Jun-17 18:33N 47°31' W 003°23'8 8.4
2016-Jun-17 17:33N 47°23' W 003°22'8 8.1
2016-Jun-17 16:33N 47°14' W 003°22'10 0.7
2016-Jun-17 02:33N 47°04' W 003°23'9 8.9
2016-Jun-17 01:33N 47°13' W 003°23'9 9.1
2016-Jun-17 00:33N 47°22' W 003°23'9 8.8
2016-Jun-16 23:33N 47°31' W 003°23'9 8.9
2016-Jun-16 22:33N 47°40' W 003°22'4 4.2
2016-Jun-16 21:33N 47°44' W 003°22'0 0.0
2016-Jun-16 20:33N 47°44' W 003°22'0 0.2
2016-Jun-16 19:33N 47°44' W 003°22'3 3.4
2016-Jun-16 18:33N 47°40' W 003°22'9 9.0
2016-Jun-16 17:33N 47°31' W 003°22'9 8.8
2016-Jun-16 16:33N 47°23' W 003°23'9 8.9
2016-Jun-16 15:33N 47°14' W 003°23'19 1.7
2016-Jun-16 04:19N 46°55' W 003°23'4 4.2
2016-Jun-16 03:15N 46°59' W 003°25'1 0.9
2016-Jun-16 02:16N 46°59' W 003°26'2 3.1
2016-Jun-16 01:33N 47°00' W 003°24'4 4.3
2016-Jun-16 00:32N 47°03' W 003°28'3 2.8
2016-Jun-15 23:33N 47°06' W 003°29'4 4.3
2016-Jun-15 22:33N 47°07' W 003°23'3 3.3
2016-Jun-15 21:33N 47°04' W 003°24'2 0.1
2016-Jun-15 02:09N 47°05' W 003°25'6 9.0
2016-Jun-15 01:32N 47°11' W 003°25'9 9.3
2016-Jun-15 00:33N 47°20' W 003°24'9 9.0
2016-Jun-14 23:34N 47°29' W 003°23'9 8.8
2016-Jun-14 22:33N 47°38' W 003°23'6 6.1
2016-Jun-14 21:33N 47°44' W 003°22'5 4.8
2016-Jun-14 20:33N 47°39' W 003°22'9 9.2
2016-Jun-14 19:33N 47°30' W 003°23'9 9.4
2016-Jun-14 18:33N 47°20' W 003°23'10 9.4
2016-Jun-14 17:32N 47°11' W 003°23'  

Dump ship's entire track history